This is the latest recevied weather packets stored in our database for station/object W7MKM-13. If no packets are shown the sender has not sent any weather packets the latest 10 day(s).
| Time | Temp. | Humidity | Pressure | Rain* | Wind** | Luminosity | Snow |
|---|---|---|---|---|---|---|---|
| 1777417517 | 12.78° C | 39% | 1020.5 hPa | 0 mm | - | 638 W/m² | - |
| 1777410617 | 13.33° C | 42% | 1022.1 hPa | 0 mm | - | 456 W/m² | - |
| 1777408217 | 12.22° C | 41% | 1022 hPa | 0 mm | - | 596 W/m² | - |
| 1777407917 | 12.22° C | 41% | 1022 hPa | 0 mm | - | 556 W/m² | - |
| 1777406117 | 12.22° C | 43% | 1022 hPa | 0 mm | - | 717 W/m² | - |
| 1777404317 | 12.22° C | 43% | 1022.4 hPa | 0 mm | - | 377 W/m² | - |
| 1777403717 | 12.22° C | 47% | 1022.5 hPa | 0 mm | - | 1105 W/m² | - |
| 1777399817 | 10.56° C | 52% | 1022.8 hPa | 0 mm | - | 263 W/m² | - |
| 1777397417 | 11.11° C | 58% | 1023.2 hPa | 0 mm | - | 983 W/m² | - |
| 1777396817 | 11.11° C | 58% | 1023.2 hPa | 0 mm | - | 884 W/m² | - |
| 1777394717 | 10° C | 64% | 1023.1 hPa | 0.25 mm | - | 778 W/m² | - |
| 1777393217 | 9.44° C | 66% | 1023 hPa | 0.25 mm | - | 702 W/m² | - |
| 1777392017 | 8.89° C | 71% | 1023.1 hPa | 0 mm | - | 644 W/m² | - |
| 1777390817 | 8.33° C | 74% | 1022.7 hPa | 0 mm | - | 583 W/m² | - |
| 1777388417 | 7.22° C | 78% | 1022.3 hPa | 0 mm | - | 451 W/m² | - |
| 1777386917 | 6.11° C | 82% | 1021.9 hPa | 0 mm | - | 355 W/m² | - |
| 1777385417 | 5° C | 88% | 1021.2 hPa | 0 mm | - | 253 W/m² | - |
| 1777384817 | 4.44° C | 90% | 1021.1 hPa | 0 mm | - | 214 W/m² | - |
| 1777383917 | 3.33° C | 92% | 1020.6 hPa | 0 mm | - | 154 W/m² | - |
| 1777381217 | 0° C | 91% | 1018.5 hPa | 0 mm | - | 16 W/m² | - |
| 1777380917 | 0° C | 91% | 1018.4 hPa | 0 mm | - | 14 W/m² | - |
| 1777380617 | 0° C | 91% | 1018.3 hPa | 0 mm | - | 12 W/m² | - |
| 1777373717 | 0° C | 90% | 1016.8 hPa | 0 mm | - | 0 W/m² | - |
| 1777372817 | 0° C | 90% | 1016.8 hPa | 0 mm | - | 0 W/m² | - |
| 1777372517 | 0° C | 90% | 1016.7 hPa | 0 mm | - | 0 W/m² | - |
* Rain latest hour (hover to see other rain measurements)
** Current wind speed in m/s (hover to see current wind gust speed)